createdAt,value
2022-12-12T00:29:52.888Z,24.33
2022-12-12T00:32:20.703Z,22.27
2022-12-12T00:34:48.499Z,21.33
2022-12-12T00:37:16.672Z,21.23
2022-12-12T00:39:46.424Z,21.33
2022-12-12T00:42:14.734Z,22.43
2022-12-12T00:44:42.814Z,22.73
2022-12-12T00:47:12.076Z,27.47
2022-12-12T00:49:40.046Z,28.73
2022-12-12T00:52:07.960Z,30.07
2022-12-12T00:54:36.107Z,29.80
2022-12-12T00:57:04.161Z,38.07
2022-12-12T00:59:32.454Z,35.77
2022-12-12T01:02:00.321Z,31.57
2022-12-12T01:04:29.632Z,27.10
2022-12-12T01:06:57.342Z,22.70
2022-12-12T01:09:25.092Z,24.50
2022-12-12T01:11:53.067Z,22.00
2022-12-12T01:14:20.805Z,21.47
2022-12-12T01:16:48.579Z,19.27
2022-12-12T01:19:16.372Z,19.67
2022-12-12T01:21:45.477Z,19.27
2022-12-12T01:24:13.179Z,19.83
2022-12-12T01:26:41.705Z,18.30
2022-12-12T01:29:09.415Z,20.30
2022-12-12T01:31:37.247Z,19.23
2022-12-12T01:34:05.101Z,19.57
2022-12-12T01:36:32.786Z,20.33
2022-12-12T01:39:02.822Z,18.43
2022-12-12T01:41:30.959Z,20.13
2022-12-12T01:44:01.775Z,20.43
2022-12-12T01:46:42.943Z,18.93
2022-12-12T01:49:16.675Z,19.03
2022-12-12T01:51:46.293Z,19.27
2022-12-12T01:54:19.951Z,20.07
2022-12-12T01:56:48.887Z,19.47
2022-12-12T01:59:20.066Z,19.60
2022-12-12T02:01:48.237Z,19.13
2022-12-12T02:04:16.420Z,19.10
2022-12-12T02:06:44.780Z,19.63
2022-12-12T02:09:17.039Z,19.63
2022-12-12T02:11:47.793Z,18.93
2022-12-12T02:14:17.962Z,19.93
2022-12-12T02:16:58.028Z,20.43
2022-12-12T02:19:57.867Z,18.37
2022-12-12T02:22:44.407Z,19.10
2022-12-12T02:25:38.711Z,16.83
2022-12-12T02:28:35.765Z,17.07
2022-12-12T02:31:16.467Z,17.60
2022-12-12T02:33:54.295Z,16.47
2022-12-12T02:36:33.052Z,18.43
2022-12-12T02:39:07.983Z,17.87
2022-12-12T02:41:40.252Z,17.53
2022-12-12T02:44:17.821Z,18.67
2022-12-12T02:46:53.969Z,19.53
2022-12-12T02:49:26.486Z,18.67
2022-12-12T02:51:55.959Z,19.27
2022-12-12T02:54:24.937Z,18.07
2022-12-12T02:56:55.683Z,16.63
2022-12-12T02:59:27.889Z,19.77
2022-12-12T03:02:29.283Z,17.13
2022-12-12T03:05:29.871Z,16.60
2022-12-12T03:08:08.583Z,17.33
2022-12-12T03:10:50.205Z,15.57
2022-12-12T03:13:33.441Z,15.87
2022-12-12T03:16:14.482Z,16.40
2022-12-12T03:18:51.756Z,16.13
2022-12-12T03:21:26.722Z,17.33
2022-12-12T03:24:01.006Z,17.33
2022-12-12T03:26:33.406Z,16.90
2022-12-12T03:29:07.273Z,16.17
2022-12-12T03:31:43.130Z,17.07
2022-12-12T03:34:16.256Z,15.40
2022-12-12T03:36:54.119Z,15.83
2022-12-12T03:39:30.026Z,15.13
2022-12-12T03:42:03.704Z,15.60
2022-12-12T03:44:41.421Z,15.53
2022-12-12T03:47:14.210Z,16.93
2022-12-12T03:49:48.832Z,15.77
2022-12-12T03:52:25.291Z,15.53
2022-12-12T03:54:57.328Z,16.53
2022-12-12T03:57:46.723Z,15.20
2022-12-12T04:00:17.160Z,15.03
2022-12-12T04:02:52.663Z,14.13
2022-12-12T04:05:24.910Z,15.20
2022-12-12T04:07:59.916Z,14.60
2022-12-12T04:10:51.833Z,15.13
2022-12-12T04:13:32.239Z,14.77
2022-12-12T04:16:05.143Z,14.13
2022-12-12T04:18:46.795Z,14.70
2022-12-12T04:21:44.842Z,15.00
2022-12-12T04:24:21.903Z,14.63
2022-12-12T04:26:55.603Z,15.50
2022-12-12T04:29:29.956Z,14.07
2022-12-12T04:32:03.408Z,13.70
2022-12-12T04:34:42.000Z,14.30
2022-12-12T04:37:15.634Z,14.80
2022-12-12T04:39:47.681Z,13.93
2022-12-12T04:42:21.424Z,14.80
2022-12-12T04:44:53.515Z,15.00
2022-12-12T04:47:22.901Z,14.93
2022-12-12T04:49:53.937Z,16.57
2022-12-12T04:52:24.737Z,17.83
2022-12-12T04:54:59.753Z,24.43
2022-12-12T04:57:33.311Z,21.00
2022-12-12T05:00:01.773Z,20.00
2022-12-12T05:02:38.740Z,20.83
2022-12-12T05:05:11.345Z,17.87
2022-12-12T05:07:42.301Z,17.10
2022-12-12T05:10:15.457Z,16.13
2022-12-12T05:12:45.399Z,15.27
2022-12-12T05:15:15.059Z,16.33
2022-12-12T05:17:47.279Z,14.23
2022-12-12T05:20:16.423Z,14.70
2022-12-12T05:22:44.384Z,15.53
2022-12-12T05:25:14.369Z,15.97
2022-12-12T05:27:42.801Z,15.33
2022-12-12T05:30:12.123Z,14.10
2022-12-12T05:32:39.931Z,14.50
2022-12-12T05:35:09.392Z,14.57
2022-12-12T05:37:37.559Z,14.73
2022-12-12T05:40:07.978Z,14.57
2022-12-12T05:42:37.138Z,13.70
2022-12-12T05:45:06.197Z,14.83
2022-12-12T05:47:34.034Z,14.97
2022-12-12T05:50:02.503Z,14.87
2022-12-12T05:52:30.210Z,13.87
2022-12-12T05:54:58.012Z,14.43
2022-12-12T05:57:27.073Z,14.13
2022-12-12T05:59:57.046Z,13.57
2022-12-12T06:02:25.336Z,14.53
2022-12-12T06:04:55.141Z,15.40
2022-12-12T06:07:22.853Z,14.27
2022-12-12T06:09:50.580Z,15.73
2022-12-12T06:12:18.396Z,14.07
2022-12-12T06:14:53.065Z,13.50
2022-12-12T06:17:27.132Z,13.23
2022-12-12T06:19:59.923Z,12.30
2022-12-12T06:22:28.659Z,14.70
2022-12-12T06:24:57.752Z,12.93
2022-12-12T06:27:25.453Z,13.50
2022-12-12T06:30:11.603Z,14.80
2022-12-12T06:32:42.732Z,12.47
2022-12-12T06:35:12.947Z,13.40
2022-12-12T06:46:51.384Z,15.57
2022-12-12T06:49:20.857Z,15.87
2022-12-12T06:51:51.628Z,14.63
2022-12-12T06:54:20.599Z,14.67
2022-12-12T06:56:48.940Z,14.90
2022-12-12T06:59:17.651Z,14.50
2022-12-12T07:01:45.975Z,15.33
2022-12-12T07:04:14.663Z,16.20
2022-12-12T07:06:44.109Z,15.20
2022-12-12T07:09:11.969Z,15.83
2022-12-12T07:11:41.444Z,14.10
2022-12-12T07:14:09.358Z,14.50
2022-12-12T07:16:37.156Z,14.40
2022-12-12T07:19:05.181Z,14.93
2022-12-12T07:21:32.873Z,15.40
2022-12-12T11:09:48.330Z,11.77
2022-12-12T11:12:18.340Z,11.93
2022-12-12T11:14:50.274Z,11.40
2022-12-12T12:35:14.487Z,10.37
2022-12-12T12:37:53.742Z,10.17
2022-12-12T12:40:34.491Z,10.37
2022-12-12T12:43:18.050Z,10.33
2022-12-12T12:45:50.259Z,10.30
2022-12-12T12:48:22.547Z,10.17
2022-12-12T12:50:56.600Z,11.67
2022-12-12T12:53:33.602Z,10.77
2022-12-12T12:56:09.871Z,10.23
2022-12-12T12:58:45.498Z,11.37
2022-12-12T13:01:17.359Z,10.00
2022-12-12T13:03:51.127Z,11.27
2022-12-12T13:06:24.413Z,10.80
2022-12-12T13:08:58.903Z,11.60
2022-12-12T13:11:33.113Z,11.37
2022-12-12T13:14:14.386Z,14.07
2022-12-12T13:16:44.229Z,10.57
2022-12-12T13:19:16.346Z,11.33
2022-12-12T13:21:51.283Z,11.90
2022-12-12T13:24:27.402Z,15.43
2022-12-12T13:27:02.698Z,10.60
2022-12-12T13:29:41.065Z,12.27
2022-12-12T13:32:34.197Z,10.63
2022-12-12T13:35:07.828Z,11.73
2022-12-12T13:37:44.019Z,11.50
2022-12-12T13:40:24.190Z,10.27
2022-12-12T13:42:54.790Z,10.33
2022-12-12T13:45:45.604Z,9.77
2022-12-12T13:48:41.423Z,10.80
2022-12-12T13:57:34.554Z,10.30
2022-12-12T14:00:23.466Z,10.63
2022-12-12T14:09:05.136Z,10.17
2022-12-12T14:11:37.220Z,10.83
2022-12-12T14:14:23.120Z,10.83
2022-12-12T14:16:56.444Z,11.53
2022-12-12T14:19:36.451Z,10.60
2022-12-12T14:22:05.194Z,11.77
2022-12-12T14:24:56.683Z,10.43
2022-12-12T14:28:03.338Z,11.53
2022-12-12T14:30:44.701Z,11.40
2022-12-12T14:33:35.525Z,11.23
2022-12-12T14:36:10.976Z,15.37
2022-12-12T14:38:45.308Z,16.47
2022-12-12T14:41:17.853Z,14.30
2022-12-12T14:44:35.626Z,11.87
2022-12-12T14:46:42.281Z,12.13
2022-12-12T14:49:15.330Z,12.13
2022-12-12T14:51:44.972Z,10.17
2022-12-12T14:54:17.615Z,10.67
2022-12-12T14:56:52.980Z,11.57
2022-12-12T14:59:24.378Z,14.43
2022-12-12T15:01:54.621Z,12.37
2022-12-12T15:04:25.488Z,11.27
2022-12-12T15:06:54.021Z,9.97
2022-12-12T15:09:29.189Z,9.30
2022-12-12T15:12:13.740Z,10.60
2022-12-12T15:14:52.955Z,12.63
2022-12-12T15:17:23.684Z,11.87
2022-12-12T15:19:54.338Z,11.43
2022-12-12T15:22:25.041Z,11.70
2022-12-12T15:24:53.689Z,12.63
2022-12-12T15:27:26.206Z,11.57
2022-12-12T15:29:54.608Z,11.60
2022-12-12T15:32:24.702Z,11.30
2022-12-12T15:35:02.479Z,11.73
2022-12-12T15:37:32.869Z,11.43
2022-12-12T15:40:17.511Z,12.37
2022-12-12T15:42:51.449Z,11.40
2022-12-12T15:45:24.885Z,11.60
2022-12-12T15:47:54.328Z,11.70
2022-12-12T15:50:24.253Z,11.90
2022-12-12T15:53:05.472Z,11.80
2022-12-12T15:55:33.974Z,11.40
2022-12-12T15:58:03.091Z,11.93
2022-12-12T16:00:37.841Z,12.93
2022-12-12T16:03:20.728Z,12.90
2022-12-12T16:06:04.211Z,13.43
2022-12-12T16:09:01.842Z,12.00
2022-12-12T16:11:37.181Z,13.63
2022-12-12T16:14:07.147Z,12.70
2022-12-12T16:16:45.098Z,12.37
2022-12-12T16:19:35.050Z,14.63
2022-12-12T16:22:05.986Z,12.87
2022-12-12T16:24:33.838Z,12.90
2022-12-12T16:27:02.184Z,13.73
2022-12-12T16:29:31.417Z,13.00
2022-12-12T16:31:59.296Z,12.33
2022-12-12T16:34:27.011Z,14.03
2022-12-12T16:36:54.737Z,14.03
2022-12-12T16:39:22.991Z,13.23
2022-12-12T16:41:50.744Z,13.93
2022-12-12T16:44:18.505Z,13.87
2022-12-12T16:46:47.795Z,13.67
2022-12-12T16:49:15.849Z,13.50
2022-12-12T16:51:43.663Z,14.33
2022-12-12T16:54:16.353Z,14.07
2022-12-12T16:56:44.251Z,12.97
2022-12-12T16:59:11.946Z,14.23
2022-12-12T17:01:41.054Z,13.67
2022-12-12T17:04:19.334Z,13.40
2022-12-12T17:06:47.079Z,13.97
2022-12-12T17:09:14.823Z,13.90
2022-12-12T17:11:42.611Z,14.93
2022-12-12T17:14:22.555Z,13.50
2022-12-12T17:16:50.849Z,13.23
2022-12-12T17:19:22.952Z,13.70
2022-12-12T17:21:50.814Z,13.70
2022-12-12T17:24:18.556Z,13.90
2022-12-12T17:26:46.286Z,14.40
2022-12-12T17:29:14.127Z,14.13
2022-12-12T17:31:42.184Z,15.23
2022-12-12T17:34:11.051Z,15.07
2022-12-12T17:36:40.144Z,15.60
2022-12-12T17:39:07.831Z,15.10
2022-12-12T17:41:35.687Z,15.27
2022-12-12T17:44:03.471Z,15.63
2022-12-12T17:46:31.204Z,14.80
2022-12-12T17:49:01.762Z,15.67
2022-12-12T17:51:29.756Z,14.50
2022-12-12T17:54:00.064Z,16.47
2022-12-12T17:56:28.406Z,16.27
2022-12-12T17:58:56.210Z,15.23
2022-12-12T18:01:26.118Z,15.40
2022-12-12T18:03:54.826Z,15.87
2022-12-12T18:06:23.796Z,16.53
2022-12-12T18:08:54.433Z,16.40
2022-12-12T18:11:27.496Z,16.17
2022-12-12T18:13:57.682Z,14.97
2022-12-12T18:16:29.279Z,17.87
2022-12-12T18:18:57.857Z,17.33
2022-12-12T18:24:19.232Z,17.70
2022-12-12T18:26:52.678Z,17.73
2022-12-12T18:29:21.472Z,17.00
2022-12-12T18:31:49.381Z,17.37
2022-12-12T18:34:17.460Z,17.13
2022-12-12T18:36:45.194Z,17.20
2022-12-12T18:39:12.921Z,16.83
2022-12-12T18:41:40.733Z,18.10
2022-12-12T18:44:13.266Z,17.63
2022-12-12T18:46:43.360Z,17.17
2022-12-12T18:49:14.876Z,18.03
2022-12-12T18:51:43.172Z,18.70
2022-12-12T18:54:15.412Z,17.37
2022-12-12T18:56:44.681Z,19.13
2022-12-12T18:59:14.656Z,19.37
2022-12-12T19:01:42.669Z,19.40
2022-12-12T19:04:13.417Z,19.47
2022-12-12T19:06:43.462Z,18.47
2022-12-12T19:09:15.084Z,19.13
2022-12-12T19:11:43.850Z,19.93
2022-12-12T19:14:15.045Z,20.50
2022-12-12T19:16:43.109Z,21.17
2022-12-12T19:19:12.060Z,16.23
2022-12-12T19:21:42.002Z,19.07
2022-12-12T19:24:14.470Z,22.57
2022-12-12T19:26:44.511Z,22.17
2022-12-12T19:29:16.699Z,21.90
2022-12-12T19:31:45.615Z,21.17
2022-12-12T19:34:17.325Z,21.87
2022-12-12T19:36:45.755Z,21.00
2022-12-12T19:39:14.222Z,21.90
2022-12-12T19:41:42.405Z,20.67
2022-12-12T19:44:14.740Z,21.77
2022-12-12T19:46:45.491Z,21.47
2022-12-12T19:49:15.623Z,21.93
2022-12-12T19:51:44.857Z,22.90
2022-12-12T19:54:15.400Z,23.30
2022-12-12T19:56:43.453Z,25.03
2022-12-12T19:59:14.853Z,24.37
2022-12-12T20:01:43.676Z,23.17
2022-12-12T20:04:16.749Z,22.47
2022-12-12T20:06:46.254Z,21.97
2022-12-12T20:09:15.458Z,22.43
2022-12-12T20:11:45.162Z,22.33
2022-12-12T20:14:15.357Z,22.33
2022-12-12T20:16:43.384Z,21.93
2022-12-12T20:19:11.932Z,22.27
2022-12-12T20:24:33.176Z,21.83
2022-12-12T20:27:03.484Z,21.90
2022-12-12T20:29:33.580Z,22.03
2022-12-12T20:32:12.540Z,22.57
2022-12-12T20:34:45.506Z,23.03
2022-12-12T20:37:18.277Z,24.13
2022-12-12T20:39:47.900Z,23.10
2022-12-12T20:42:15.610Z,23.70
2022-12-12T20:44:44.729Z,23.70
2022-12-12T20:47:18.150Z,24.77
2022-12-12T20:49:48.102Z,24.00
2022-12-12T20:52:15.837Z,24.10
2022-12-12T20:54:43.649Z,23.70
2022-12-12T20:57:11.565Z,25.53
2022-12-12T20:59:39.303Z,23.77
2022-12-12T21:02:08.462Z,27.90
2022-12-12T21:04:36.513Z,52.73
2022-12-12T21:07:04.333Z,41.67
2022-12-12T21:09:32.083Z,34.63
2022-12-12T21:12:00.091Z,35.53
2022-12-12T21:14:30.636Z,31.03
2022-12-12T21:16:58.417Z,30.57
2022-12-12T21:19:27.651Z,27.43
2022-12-12T21:21:55.561Z,26.50
2022-12-12T21:24:23.720Z,26.70
2022-12-12T21:26:51.706Z,26.37
2022-12-12T21:29:19.457Z,26.50
2022-12-12T21:31:51.467Z,27.17
2022-12-12T21:34:21.216Z,26.77
2022-12-12T21:36:52.800Z,26.03
2022-12-12T21:39:21.865Z,26.57
2022-12-12T21:41:51.054Z,25.13
2022-12-12T21:44:18.832Z,25.47
2022-12-12T21:46:46.613Z,24.80
2022-12-12T21:49:34.114Z,26.93
2022-12-12T21:52:05.416Z,27.37
2022-12-12T21:54:33.777Z,27.40
2022-12-12T21:57:01.827Z,27.83
2022-12-12T21:59:31.026Z,26.13
2022-12-12T22:02:00.745Z,27.00
2022-12-12T22:04:29.094Z,26.73
2022-12-12T22:06:57.933Z,27.20
2022-12-12T22:09:28.083Z,27.10
2022-12-12T22:12:03.986Z,27.00
2022-12-12T22:14:33.746Z,26.00
2022-12-12T22:17:01.785Z,27.90
2022-12-12T22:19:29.898Z,26.53
2022-12-12T22:21:57.669Z,29.40
2022-12-12T22:24:27.230Z,29.23
2022-12-12T22:26:55.003Z,26.80
2022-12-12T22:29:22.786Z,26.50
2022-12-12T22:31:52.086Z,28.53
2022-12-12T22:34:22.477Z,30.27
2022-12-12T22:36:50.406Z,30.53
2022-12-12T22:39:20.898Z,32.23
2022-12-12T22:41:51.001Z,30.97
2022-12-12T22:44:20.519Z,31.07
2022-12-12T22:46:52.460Z,30.93
2022-12-12T22:49:22.437Z,35.13
2022-12-12T22:51:50.656Z,40.57
2022-12-12T22:54:19.226Z,42.57
2022-12-12T22:56:47.233Z,36.87
2022-12-12T22:59:16.493Z,32.07
2022-12-12T23:01:44.596Z,34.37
2022-12-12T23:04:14.034Z,37.43
2022-12-12T23:06:42.804Z,35.67
2022-12-12T23:09:15.207Z,41.70
2022-12-12T23:11:43.830Z,41.53
2022-12-12T23:14:14.704Z,36.50
2022-12-12T23:16:44.441Z,35.80
2022-12-12T23:19:15.141Z,32.20
2022-12-12T23:21:43.308Z,29.73
2022-12-12T23:24:11.438Z,29.13
2022-12-12T23:26:39.358Z,31.13
2022-12-12T23:29:09.212Z,27.63
2022-12-12T23:31:39.442Z,30.70
2022-12-12T23:34:10.932Z,29.80
2022-12-12T23:36:38.877Z,28.50
2022-12-12T23:39:08.785Z,30.93
2022-12-12T23:41:37.020Z,31.47
2022-12-12T23:44:05.373Z,31.63
2022-12-12T23:46:33.669Z,31.20
2022-12-12T23:49:05.637Z,32.10
2022-12-12T23:51:36.506Z,31.93
2022-12-12T23:54:06.417Z,32.93
2022-12-12T23:56:34.455Z,31.53
2022-12-12T23:59:02.215Z,29.70
